This is the latest recevied weather packets stored in our database for station/object BMCB-15. If no packets are shown the sender has not sent any weather packets the latest 10 day(s).
| Time | Temp. | Humidity | Pressure | Rain* | Wind** | Luminosity | Snow |
|---|---|---|---|---|---|---|---|
| 1777939838 | 11.67° C | 10% | 1013.5 hPa | 0 mm | - | - | - |
| 1777927849 | 12.78° C | 96% | 1014.8 hPa | 0 mm | - | 0 W/m² | - |
| 1777921249 | 13.33° C | 94% | 1014.5 hPa | 0 mm | - | 4 W/m² | - |
| 1777917042 | 13.89° C | 94% | 1014.6 hPa | 0 mm | - | 46 W/m² | - |
| 1777916441 | 13.89° C | 93% | 1014.6 hPa | 0 mm | - | 56 W/m² | - |
| 1777914645 | 13.89° C | 95% | 1014.6 hPa | 0.51 mm | - | 90 W/m² | - |
| 1777914040 | 13.89° C | 94% | 1014.7 hPa | 0.51 mm | - | 84 W/m² | - |
| 1777909246 | 14.44° C | 96% | 1014.9 hPa | 3.81 mm | - | 130 W/m² | - |
| 1777908640 | 13.89° C | 96% | 1014.9 hPa | 3.81 mm | - | 140 W/m² | - |
| 1777906239 | 13.89° C | 91% | 1015.2 hPa | 2.29 mm | - | 58 W/m² | - |
| 1777905041 | 16.67° C | 81% | 1015 hPa | 0 mm | - | 162 W/m² | - |
| 1777894239 | 15.56° C | 87% | 1016 hPa | 0 mm | - | 270 W/m² | - |
| 1777893639 | 15° C | 87% | 1016 hPa | 0 mm | - | 210 W/m² | - |
| 1777890039 | 15° C | 88% | 1016.3 hPa | 0 mm | - | 160 W/m² | - |
| 1777884039 | 13.89° C | 91% | 1016.2 hPa | 0 mm | - | 194 W/m² | - |
| 1777879838 | 13.33° C | 93% | 1015.8 hPa | 0 mm | - | 158 W/m² | - |
| 1777872037 | 10.56° C | 99% | 1015.1 hPa | 0 mm | - | 74 W/m² | - |
| 1777867239 | 10.56° C | 97% | 1014.8 hPa | 0 mm | - | 0 W/m² | - |
| 1777866637 | 10.56° C | 97% | 1014.8 hPa | 0 mm | - | 0 W/m² | - |
| 1777862437 | 11.11° C | 95% | 1014.6 hPa | 0 mm | - | 0 W/m² | - |
| 1777855837 | 12.22° C | 93% | 1014.2 hPa | 0 mm | - | 0 W/m² | - |
| 1777851044 | 12.22° C | 94% | 1014.4 hPa | 0 mm | - | 0 W/m² | - |
| 1777850444 | 12.22° C | 94% | 1014.6 hPa | 0 mm | - | 0 W/m² | - |
| 1777845644 | 13.33° C | 93% | 1014.6 hPa | 0 mm | - | 0 W/m² | - |
| 1777843850 | 13.33° C | 94% | 1014.7 hPa | 0 mm | - | 0 W/m² | - |
* Rain latest hour (hover to see other rain measurements)
** Current wind speed in m/s (hover to see current wind gust speed)